TVF43KT LFPO-LFBZ
Flight info
| Callsign | TVF43KT |
|---|---|
| Flight time | 1h 6m |
| Altitude | 35000 |
| Route | AGOPA DCT ARKIP DCT ARMAL DCT ARTAX DCT BEBIX DCT LMG DCT UVELI DCT OSMOB DCT VAVIX DCT MAGEC |
| Aircraft | B738/M-SDE2E3FGHIRWXY/LB1 |
Departure
| Time | 2026-04-20 13:12 |
|---|---|
| Airport | Paris-Orly Airport (LFPO) |
Arrival
| Time | 2026-04-20 14:19 |
|---|---|
| Airport | Biarritz Pays Basque airport (LFBZ) |
| Time | Latitude | Longitude | Altitude | Speed | Heading |
|---|---|---|---|---|---|
| 2026-04-20 12:43 | 48.72684 | 2.35723 | 285 ft | 0 kts | 81° |
| 2026-04-20 13:05 | 48.72681 | 2.35697 | 294 ft | 4 kts | 81° |
| 2026-04-20 13:05 | 48.72678 | 2.35665 | 292 ft | 4 kts | 90° |
| 2026-04-20 13:05 | 48.72683 | 2.35633 | 294 ft | 4 kts | 153° |
| 2026-04-20 13:05 | 48.72705 | 2.35622 | 294 ft | 2 kts | 165° |
| 2026-04-20 13:06 | 48.72707 | 2.35621 | 294 ft | 0 kts | 165° |
| 2026-04-20 13:07 | 48.72704 | 2.35623 | 294 ft | 2 kts | 165° |
| 2026-04-20 13:08 | 48.72664 | 2.35639 | 296 ft | 11 kts | 164° |
| 2026-04-20 13:08 | 48.72624 | 2.35656 | 294 ft | 3 kts | 165° |
| 2026-04-20 13:08 | 48.72577 | 2.35675 | 293 ft | 10 kts | 164° |
| 2026-04-20 13:08 | 48.72502 | 2.35702 | 289 ft | 11 kts | 181° |
| 2026-04-20 13:09 | 48.72444 | 2.35634 | 292 ft | 11 kts | 220° |
| 2026-04-20 13:09 | 48.72374 | 2.35634 | 291 ft | 10 kts | 165° |
| 2026-04-20 13:09 | 48.72306 | 2.35624 | 290 ft | 10 kts | 199° |
| 2026-04-20 13:09 | 48.72240 | 2.35601 | 290 ft | 10 kts | 179° |
| 2026-04-20 13:10 | 48.72175 | 2.35622 | 291 ft | 9 kts | 166° |
| 2026-04-20 13:10 | 48.72116 | 2.35646 | 290 ft | 8 kts | 162° |
| 2026-04-20 13:10 | 48.72066 | 2.35686 | 293 ft | 8 kts | 143° |
| 2026-04-20 13:10 | 48.72033 | 2.35742 | 292 ft | 6 kts | 124° |
| 2026-04-20 13:11 | 48.72010 | 2.35800 | 293 ft | 6 kts | 120° |
| 2026-04-20 13:11 | 48.71989 | 2.35858 | 295 ft | 6 kts | 118° |
| 2026-04-20 13:11 | 48.71968 | 2.35915 | 291 ft | 6 kts | 118° |
| 2026-04-20 13:11 | 48.71964 | 2.35977 | 291 ft | 7 kts | 76° |
| 2026-04-20 13:12 | 48.72021 | 2.36294 | 293 ft | 71 kts | 74° |
| 2026-04-20 13:12 | 48.72225 | 2.37395 | 293 ft | 144 kts | 73° |
| 2026-04-20 13:12 | 48.72524 | 2.38955 | 1023 ft | 150 kts | 75° |
| 2026-04-20 13:12 | 48.72800 | 2.40525 | 1997 ft | 164 kts | 73° |
| 2026-04-20 13:13 | 48.73104 | 2.42200 | 3051 ft | 163 kts | 72° |
| 2026-04-20 13:13 | 48.73408 | 2.43854 | 4069 ft | 170 kts | 71° |
| 2026-04-20 13:13 | 48.73748 | 2.45711 | 4661 ft | 195 kts | 73° |
| 2026-04-20 13:13 | 48.74106 | 2.47811 | 5110 ft | 219 kts | 77° |
| 2026-04-20 13:14 | 48.74202 | 2.50290 | 5427 ft | 252 kts | 86° |
| 2026-04-20 13:14 | 48.74268 | 2.53030 | 6245 ft | 262 kts | 85° |
| 2026-04-20 13:14 | 48.74299 | 2.55840 | 7130 ft | 274 kts | 94° |
| 2026-04-20 13:14 | 48.73597 | 2.58557 | 8025 ft | 285 kts | 126° |
| 2026-04-20 13:15 | 48.72094 | 2.60528 | 9012 ft | 292 kts | 152° |
| 2026-04-20 13:15 | 48.70822 | 2.61241 | 9591 ft | 296 kts | 171° |
| 2026-04-20 13:15 | 48.68102 | 2.60894 | 10709 ft | 304 kts | 203° |
| 2026-04-20 13:15 | 48.66811 | 2.59958 | 10882 ft | 320 kts | 213° |
| 2026-04-20 13:16 | 48.64856 | 2.58066 | 11121 ft | 347 kts | 217° |
| 2026-04-20 13:16 | 48.62827 | 2.55928 | 11698 ft | 360 kts | 218° |
| 2026-04-20 13:16 | 48.60768 | 2.53736 | 12591 ft | 364 kts | 218° |
| 2026-04-20 13:16 | 48.58688 | 2.51544 | 13586 ft | 365 kts | 218° |
| 2026-04-20 13:17 | 48.56586 | 2.49359 | 14434 ft | 369 kts | 218° |
| 2026-04-20 13:17 | 48.54455 | 2.47167 | 15212 ft | 373 kts | 218° |
| 2026-04-20 13:17 | 48.52291 | 2.44960 | 15995 ft | 377 kts | 218° |
| 2026-04-20 13:17 | 48.50103 | 2.42740 | 16767 ft | 381 kts | 218° |
| 2026-04-20 13:18 | 48.47890 | 2.40503 | 17547 ft | 385 kts | 218° |
| 2026-04-20 13:18 | 48.45651 | 2.38244 | 18307 ft | 389 kts | 218° |
| 2026-04-20 13:18 | 48.43387 | 2.35964 | 18981 ft | 393 kts | 218° |
| 2026-04-20 13:18 | 48.41112 | 2.33676 | 19685 ft | 394 kts | 218° |
| 2026-04-20 13:19 | 48.38834 | 2.31389 | 20393 ft | 395 kts | 219° |
| 2026-04-20 13:19 | 48.36537 | 2.29083 | 21056 ft | 398 kts | 219° |
| 2026-04-20 13:19 | 48.34223 | 2.26763 | 21691 ft | 401 kts | 219° |
| 2026-04-20 13:19 | 48.31896 | 2.24430 | 22311 ft | 404 kts | 219° |
| 2026-04-20 13:20 | 48.29550 | 2.22083 | 22923 ft | 407 kts | 220° |
| 2026-04-20 13:20 | 48.27187 | 2.19721 | 23526 ft | 409 kts | 220° |
| 2026-04-20 13:20 | 48.24810 | 2.17348 | 24047 ft | 412 kts | 220° |
| 2026-04-20 13:20 | 48.22415 | 2.14960 | 24537 ft | 414 kts | 220° |
| 2026-04-20 13:21 | 48.20006 | 2.12561 | 24957 ft | 418 kts | 220° |
| 2026-04-20 13:21 | 48.17571 | 2.10136 | 25311 ft | 423 kts | 220° |
| 2026-04-20 13:21 | 48.15112 | 2.07691 | 25770 ft | 425 kts | 220° |
| 2026-04-20 13:21 | 48.12642 | 2.05242 | 26271 ft | 426 kts | 220° |
| 2026-04-20 13:22 | 48.10041 | 2.03047 | 26708 ft | 437 kts | 210° |
| 2026-04-20 13:22 | 48.07107 | 2.01649 | 27139 ft | 449 kts | 199° |
| 2026-04-20 13:22 | 48.03968 | 2.01054 | 27553 ft | 462 kts | 187° |
| 2026-04-20 13:22 | 48.00728 | 2.01175 | 27959 ft | 468 kts | 184° |
| 2026-04-20 13:23 | 47.97469 | 2.01427 | 28321 ft | 471 kts | 183° |
| 2026-04-20 13:23 | 47.94185 | 2.01701 | 28664 ft | 474 kts | 183° |
| 2026-04-20 13:23 | 47.90879 | 2.01957 | 29030 ft | 476 kts | 184° |
| 2026-04-20 13:23 | 47.87567 | 2.02185 | 29467 ft | 476 kts | 184° |
| 2026-04-20 13:24 | 47.84266 | 2.02393 | 30043 ft | 473 kts | 184° |
| 2026-04-20 13:24 | 47.80983 | 2.02588 | 30538 ft | 471 kts | 184° |
| 2026-04-20 13:24 | 47.77715 | 2.02775 | 30936 ft | 469 kts | 185° |
| 2026-04-20 13:24 | 47.74456 | 2.02960 | 31344 ft | 469 kts | 185° |
| 2026-04-20 13:25 | 47.71202 | 2.03145 | 31769 ft | 468 kts | 185° |
| 2026-04-20 13:25 | 47.67994 | 2.03330 | 32202 ft | 466 kts | 185° |
| 2026-04-20 13:25 | 47.64757 | 2.03517 | 32652 ft | 464 kts | 185° |
| 2026-04-20 13:25 | 47.61496 | 2.03706 | 33081 ft | 463 kts | 185° |
| 2026-04-20 13:26 | 47.58317 | 2.03891 | 33490 ft | 463 kts | 185° |
| 2026-04-20 13:26 | 47.55103 | 2.04080 | 33910 ft | 461 kts | 185° |
| 2026-04-20 13:26 | 47.51910 | 2.04268 | 34329 ft | 458 kts | 185° |
| 2026-04-20 13:26 | 47.48725 | 2.04453 | 34642 ft | 458 kts | 184° |
| 2026-04-20 13:27 | 47.45532 | 2.04637 | 34904 ft | 460 kts | 184° |
| 2026-04-20 13:27 | 47.42333 | 2.04822 | 35100 ft | 462 kts | 184° |
| 2026-04-20 13:27 | 47.39106 | 2.05007 | 35082 ft | 465 kts | 184° |
| 2026-04-20 13:28 | 47.32683 | 2.05068 | 35069 ft | 451 kts | 194° |
| 2026-04-20 13:28 | 47.26570 | 2.03534 | 35078 ft | 445 kts | 197° |
| 2026-04-20 13:29 | 47.20477 | 2.01894 | 35090 ft | 446 kts | 197° |
| 2026-04-20 13:29 | 47.14357 | 2.00301 | 35064 ft | 447 kts | 197° |
| 2026-04-20 13:30 | 47.08232 | 1.98748 | 35073 ft | 447 kts | 197° |
| 2026-04-20 13:30 | 47.02098 | 1.97207 | 35077 ft | 447 kts | 197° |
| 2026-04-20 13:31 | 46.95959 | 1.95668 | 35072 ft | 448 kts | 197° |
| 2026-04-20 13:31 | 46.89816 | 1.94130 | 35066 ft | 447 kts | 197° |
| 2026-04-20 13:32 | 46.83684 | 1.92598 | 35064 ft | 447 kts | 197° |
| 2026-04-20 13:32 | 46.77551 | 1.91068 | 35070 ft | 447 kts | 197° |
| 2026-04-20 13:33 | 46.71421 | 1.89543 | 35065 ft | 447 kts | 197° |
| 2026-04-20 13:33 | 46.65282 | 1.88019 | 35060 ft | 447 kts | 197° |
| 2026-04-20 13:34 | 46.59151 | 1.86501 | 35067 ft | 447 kts | 197° |
| 2026-04-20 13:34 | 46.53023 | 1.84987 | 35036 ft | 446 kts | 196° |
| 2026-04-20 13:35 | 46.46905 | 1.83479 | 35047 ft | 446 kts | 196° |
| 2026-04-20 13:35 | 46.40833 | 1.81985 | 35057 ft | 445 kts | 196° |
| 2026-04-20 13:36 | 46.34724 | 1.80485 | 35032 ft | 445 kts | 196° |
| 2026-04-20 13:36 | 46.28647 | 1.78838 | 35035 ft | 439 kts | 203° |
| 2026-04-20 13:37 | 46.23260 | 1.75114 | 35039 ft | 424 kts | 220° |
| 2026-04-20 13:37 | 46.18792 | 1.69713 | 35036 ft | 418 kts | 227° |
| 2026-04-20 13:38 | 46.14416 | 1.64167 | 35008 ft | 419 kts | 226° |
| 2026-04-20 13:38 | 46.10004 | 1.58655 | 35011 ft | 420 kts | 226° |
| 2026-04-20 13:39 | 46.05566 | 1.53158 | 35014 ft | 421 kts | 226° |
| 2026-04-20 13:39 | 46.01113 | 1.47656 | 35011 ft | 422 kts | 226° |
| 2026-04-20 13:40 | 45.96682 | 1.42098 | 34996 ft | 421 kts | 231° |
| 2026-04-20 13:40 | 45.93215 | 1.35474 | 34986 ft | 412 kts | 246° |
| 2026-04-20 13:41 | 45.90659 | 1.28136 | 34999 ft | 411 kts | 247° |
| 2026-04-20 13:41 | 45.88101 | 1.20837 | 34997 ft | 412 kts | 246° |
| 2026-04-20 13:42 | 45.85493 | 1.13495 | 34998 ft | 413 kts | 246° |
| 2026-04-20 13:42 | 45.81189 | 1.02746 | 34995 ft | 420 kts | 235° |
| 2026-04-20 13:43 | 45.76960 | 0.96876 | 34988 ft | 427 kts | 225° |
| 2026-04-20 13:43 | 45.72372 | 0.91468 | 34980 ft | 427 kts | 224° |
| 2026-04-20 13:44 | 45.67784 | 0.86055 | 34978 ft | 427 kts | 225° |
| 2026-04-20 13:44 | 45.63216 | 0.80632 | 34979 ft | 427 kts | 225° |
| 2026-04-20 13:45 | 45.58654 | 0.75207 | 34968 ft | 427 kts | 225° |
| 2026-04-20 13:45 | 45.54090 | 0.69787 | 34965 ft | 427 kts | 224° |
| 2026-04-20 13:46 | 45.49523 | 0.64377 | 34973 ft | 427 kts | 224° |
| 2026-04-20 13:46 | 45.44953 | 0.58976 | 34963 ft | 427 kts | 224° |
| 2026-04-20 13:47 | 45.40380 | 0.53583 | 34957 ft | 427 kts | 224° |
| 2026-04-20 13:47 | 45.35803 | 0.48196 | 34954 ft | 427 kts | 224° |
| 2026-04-20 13:48 | 45.31224 | 0.42820 | 34957 ft | 427 kts | 224° |
| 2026-04-20 13:48 | 45.26643 | 0.37453 | 34950 ft | 427 kts | 224° |
| 2026-04-20 13:49 | 45.22090 | 0.32129 | 34952 ft | 427 kts | 224° |
| 2026-04-20 13:49 | 45.17495 | 0.26768 | 34941 ft | 428 kts | 224° |
| 2026-04-20 13:50 | 45.12899 | 0.21417 | 34954 ft | 428 kts | 224° |
| 2026-04-20 13:50 | 45.08294 | 0.16064 | 34924 ft | 429 kts | 224° |
| 2026-04-20 13:51 | 45.05970 | 0.13366 | 34411 ft | 433 kts | 224° |
| 2026-04-20 13:51 | 45.03648 | 0.10678 | 33778 ft | 430 kts | 224° |
| 2026-04-20 13:51 | 45.01338 | 0.08010 | 33096 ft | 428 kts | 224° |
| 2026-04-20 13:51 | 44.99044 | 0.05360 | 32407 ft | 425 kts | 223° |
| 2026-04-20 13:52 | 44.96759 | 0.02724 | 31791 ft | 422 kts | 223° |
| 2026-04-20 13:52 | 44.94500 | 0.00119 | 31335 ft | 416 kts | 223° |
| 2026-04-20 13:52 | 44.92272 | -0.02446 | 30860 ft | 411 kts | 223° |
| 2026-04-20 13:52 | 44.90073 | -0.04977 | 30412 ft | 406 kts | 224° |
| 2026-04-20 13:53 | 44.87898 | -0.07479 | 29951 ft | 401 kts | 224° |
| 2026-04-20 13:53 | 44.85748 | -0.09951 | 29432 ft | 396 kts | 224° |
| 2026-04-20 13:53 | 44.83629 | -0.12384 | 28975 ft | 391 kts | 224° |
| 2026-04-20 13:53 | 44.81534 | -0.14787 | 28517 ft | 385 kts | 224° |
| 2026-04-20 13:54 | 44.79471 | -0.17151 | 28067 ft | 381 kts | 224° |
| 2026-04-20 13:54 | 44.77399 | -0.19529 | 27639 ft | 390 kts | 224° |
| 2026-04-20 13:54 | 44.75254 | -0.21993 | 27162 ft | 404 kts | 223° |
| 2026-04-20 13:54 | 44.73083 | -0.24474 | 26665 ft | 400 kts | 223° |
| 2026-04-20 13:55 | 44.70940 | -0.26915 | 26195 ft | 394 kts | 223° |
| 2026-04-20 13:55 | 44.68828 | -0.29321 | 25733 ft | 388 kts | 223° |
| 2026-04-20 13:55 | 44.66746 | -0.31691 | 25287 ft | 383 kts | 223° |
| 2026-04-20 13:55 | 44.64679 | -0.34022 | 24846 ft | 379 kts | 222° |
| 2026-04-20 13:56 | 44.62555 | -0.36195 | 24409 ft | 376 kts | 219° |
| 2026-04-20 13:56 | 44.60407 | -0.38262 | 23965 ft | 373 kts | 218° |
| 2026-04-20 13:56 | 44.58260 | -0.40293 | 23534 ft | 371 kts | 218° |
| 2026-04-20 13:56 | 44.56126 | -0.42312 | 23036 ft | 369 kts | 218° |
| 2026-04-20 13:57 | 44.54005 | -0.44328 | 22568 ft | 369 kts | 218° |
| 2026-04-20 13:57 | 44.51861 | -0.46379 | 22121 ft | 378 kts | 218° |
| 2026-04-20 13:57 | 44.49680 | -0.48472 | 21660 ft | 380 kts | 218° |
| 2026-04-20 13:57 | 44.47512 | -0.50549 | 21203 ft | 375 kts | 218° |
| 2026-04-20 13:58 | 44.45374 | -0.52597 | 20747 ft | 370 kts | 218° |
| 2026-04-20 13:58 | 44.43267 | -0.54614 | 20309 ft | 365 kts | 218° |
| 2026-04-20 13:58 | 44.41216 | -0.56578 | 19880 ft | 360 kts | 218° |
| 2026-04-20 13:58 | 44.39161 | -0.58546 | 19463 ft | 356 kts | 218° |
| 2026-04-20 13:59 | 44.37127 | -0.60492 | 19053 ft | 352 kts | 218° |
| 2026-04-20 13:59 | 44.35112 | -0.62419 | 18634 ft | 349 kts | 218° |
| 2026-04-20 13:59 | 44.33114 | -0.64329 | 18216 ft | 347 kts | 218° |
| 2026-04-20 13:59 | 44.31129 | -0.66223 | 17751 ft | 344 kts | 218° |
| 2026-04-20 14:00 | 44.29158 | -0.68102 | 17311 ft | 341 kts | 218° |
| 2026-04-20 14:00 | 44.27206 | -0.69962 | 16891 ft | 339 kts | 218° |
| 2026-04-20 14:00 | 44.25260 | -0.71820 | 16475 ft | 339 kts | 218° |
| 2026-04-20 14:00 | 44.23313 | -0.73681 | 16082 ft | 341 kts | 218° |
| 2026-04-20 14:01 | 44.21340 | -0.75569 | 15657 ft | 345 kts | 218° |
| 2026-04-20 14:01 | 44.19365 | -0.77455 | 15239 ft | 342 kts | 218° |
| 2026-04-20 14:01 | 44.17414 | -0.79315 | 14829 ft | 338 kts | 218° |
| 2026-04-20 14:01 | 44.15483 | -0.81154 | 14425 ft | 334 kts | 218° |
| 2026-04-20 14:02 | 44.13571 | -0.82974 | 14029 ft | 331 kts | 218° |
| 2026-04-20 14:02 | 44.11679 | -0.84775 | 13615 ft | 328 kts | 217° |
| 2026-04-20 14:02 | 44.09800 | -0.86560 | 13178 ft | 325 kts | 217° |
| 2026-04-20 14:02 | 44.07940 | -0.88328 | 12765 ft | 322 kts | 217° |
| 2026-04-20 14:03 | 44.06098 | -0.90077 | 12367 ft | 319 kts | 217° |
| 2026-04-20 14:03 | 44.04271 | -0.91811 | 11980 ft | 316 kts | 217° |
| 2026-04-20 14:03 | 44.02457 | -0.93531 | 11583 ft | 314 kts | 217° |
| 2026-04-20 14:03 | 44.00660 | -0.95234 | 11199 ft | 311 kts | 217° |
| 2026-04-20 14:04 | 43.98879 | -0.96920 | 10825 ft | 309 kts | 217° |
| 2026-04-20 14:04 | 43.97112 | -0.98591 | 10630 ft | 305 kts | 217° |
| 2026-04-20 14:04 | 43.95959 | -0.99681 | 10527 ft | 302 kts | 217° |
| 2026-04-20 14:04 | 43.94226 | -1.01318 | 10406 ft | 302 kts | 217° |
| 2026-04-20 14:05 | 43.92495 | -1.02953 | 10276 ft | 298 kts | 217° |
| 2026-04-20 14:05 | 43.90812 | -1.04540 | 10143 ft | 288 kts | 217° |
| 2026-04-20 14:05 | 43.89186 | -1.06072 | 10027 ft | 278 kts | 217° |
| 2026-04-20 14:05 | 43.87607 | -1.07559 | 9845 ft | 272 kts | 217° |
| 2026-04-20 14:06 | 43.85556 | -1.09491 | 9516 ft | 267 kts | 217° |
| 2026-04-20 14:06 | 43.84025 | -1.10933 | 9237 ft | 265 kts | 217° |
| 2026-04-20 14:06 | 43.82997 | -1.11901 | 9052 ft | 263 kts | 217° |
| 2026-04-20 14:06 | 43.81490 | -1.13318 | 8765 ft | 261 kts | 217° |
| 2026-04-20 14:07 | 43.79997 | -1.14723 | 8498 ft | 258 kts | 216° |
| 2026-04-20 14:07 | 43.78514 | -1.16115 | 8223 ft | 256 kts | 216° |
| 2026-04-20 14:07 | 43.77063 | -1.17475 | 7972 ft | 255 kts | 216° |
| 2026-04-20 14:07 | 43.75603 | -1.18859 | 7709 ft | 254 kts | 219° |
| 2026-04-20 14:08 | 43.74509 | -1.20721 | 7425 ft | 250 kts | 245° |
| 2026-04-20 14:08 | 43.73880 | -1.22939 | 7186 ft | 247 kts | 251° |
| 2026-04-20 14:08 | 43.73311 | -1.25173 | 6930 ft | 246 kts | 251° |
| 2026-04-20 14:08 | 43.72745 | -1.27403 | 6668 ft | 246 kts | 251° |
| 2026-04-20 14:09 | 43.72178 | -1.29628 | 6416 ft | 246 kts | 251° |
| 2026-04-20 14:09 | 43.71603 | -1.31862 | 6136 ft | 247 kts | 251° |
| 2026-04-20 14:09 | 43.71025 | -1.34095 | 5855 ft | 246 kts | 251° |
| 2026-04-20 14:09 | 43.70447 | -1.36312 | 5589 ft | 245 kts | 250° |
| 2026-04-20 14:10 | 43.69871 | -1.38518 | 5324 ft | 243 kts | 250° |
| 2026-04-20 14:10 | 43.69298 | -1.40707 | 5097 ft | 242 kts | 250° |
| 2026-04-20 14:10 | 43.68672 | -1.42837 | 4955 ft | 238 kts | 243° |
| 2026-04-20 14:10 | 43.67872 | -1.44864 | 4869 ft | 244 kts | 241° |
| 2026-04-20 14:11 | 43.67018 | -1.46945 | 4777 ft | 253 kts | 241° |
| 2026-04-20 14:11 | 43.66150 | -1.49081 | 4666 ft | 257 kts | 241° |
| 2026-04-20 14:11 | 43.65281 | -1.51246 | 4558 ft | 258 kts | 241° |
| 2026-04-20 14:11 | 43.64414 | -1.53425 | 4467 ft | 260 kts | 241° |
| 2026-04-20 14:12 | 43.63544 | -1.55615 | 4362 ft | 260 kts | 241° |
| 2026-04-20 14:12 | 43.62680 | -1.57791 | 4253 ft | 256 kts | 240° |
| 2026-04-20 14:12 | 43.61731 | -1.59852 | 4155 ft | 254 kts | 233° |
| 2026-04-20 14:12 | 43.60669 | -1.61797 | 4066 ft | 254 kts | 232° |
| 2026-04-20 14:13 | 43.59598 | -1.63733 | 3973 ft | 253 kts | 232° |
| 2026-04-20 14:13 | 43.58557 | -1.65641 | 3877 ft | 245 kts | 232° |
| 2026-04-20 14:13 | 43.57558 | -1.67489 | 3780 ft | 236 kts | 232° |
| 2026-04-20 14:13 | 43.56598 | -1.69273 | 3692 ft | 228 kts | 233° |
| 2026-04-20 14:14 | 43.55679 | -1.70982 | 3634 ft | 215 kts | 233° |
| 2026-04-20 14:14 | 43.54816 | -1.72586 | 3534 ft | 203 kts | 232° |
| 2026-04-20 14:14 | 43.53750 | -1.73798 | 3376 ft | 201 kts | 195° |
| 2026-04-20 14:14 | 43.52375 | -1.73902 | 3272 ft | 200 kts | 178° |
| 2026-04-20 14:15 | 43.50951 | -1.73862 | 3068 ft | 207 kts | 178° |
| 2026-04-20 14:15 | 43.49527 | -1.73830 | 2858 ft | 202 kts | 178° |
| 2026-04-20 14:15 | 43.48153 | -1.73727 | 2650 ft | 194 kts | 165° |
| 2026-04-20 14:15 | 43.47099 | -1.72768 | 2473 ft | 182 kts | 124° |
| 2026-04-20 14:16 | 43.46659 | -1.71197 | 2360 ft | 176 kts | 95° |
| 2026-04-20 14:16 | 43.46626 | -1.69515 | 2258 ft | 177 kts | 89° |
| 2026-04-20 14:16 | 43.46647 | -1.67829 | 2141 ft | 175 kts | 88° |
| 2026-04-20 14:16 | 43.46670 | -1.66163 | 2011 ft | 174 kts | 88° |
| 2026-04-20 14:17 | 43.46696 | -1.64534 | 1779 ft | 165 kts | 88° |
| 2026-04-20 14:17 | 43.46718 | -1.62964 | 1594 ft | 164 kts | 88° |
| 2026-04-20 14:17 | 43.46738 | -1.61394 | 1371 ft | 164 kts | 88° |
| 2026-04-20 14:17 | 43.46755 | -1.59834 | 1175 ft | 162 kts | 86° |
| 2026-04-20 14:18 | 43.46772 | -1.58335 | 998 ft | 155 kts | 86° |
| 2026-04-20 14:18 | 43.46779 | -1.56856 | 863 ft | 155 kts | 86° |
| 2026-04-20 14:18 | 43.46803 | -1.55350 | 624 ft | 157 kts | 87° |
| 2026-04-20 14:18 | 43.46812 | -1.53838 | 345 ft | 161 kts | 88° |
| 2026-04-20 14:19 | 43.46836 | -1.52339 | 240 ft | 146 kts | 89° |
| 2026-04-20 14:19 | 43.46848 | -1.51363 | 234 ft | 46 kts | 89° |
| 2026-04-20 14:19 | 43.46853 | -1.51082 | 235 ft | 11 kts | 84° |
| 2026-04-20 14:19 | 43.46882 | -1.50994 | 236 ft | 6 kts | 64° |
| 2026-04-20 14:20 | 43.46871 | -1.50972 | 236 ft | 4 kts | 179° |
| 2026-04-20 14:20 | 43.46854 | -1.51031 | 235 ft | 11 kts | 262° |
| 2026-04-20 14:20 | 43.46851 | -1.51176 | 239 ft | 19 kts | 269° |
| 2026-04-20 14:20 | 43.46849 | -1.51391 | 235 ft | 25 kts | 269° |
| 2026-04-20 14:21 | 43.46846 | -1.51654 | 235 ft | 29 kts | 269° |
| 2026-04-20 14:21 | 43.46842 | -1.51918 | 238 ft | 26 kts | 269° |
| 2026-04-20 14:21 | 43.46841 | -1.52093 | 238 ft | 12 kts | 269° |
| 2026-04-20 14:21 | 43.46889 | -1.52170 | 238 ft | 12 kts | 353° |
| 2026-04-20 14:22 | 43.46970 | -1.52186 | 239 ft | 12 kts | 332° |
| 2026-04-20 14:22 | 43.46997 | -1.52283 | 242 ft | 11 kts | 270° |
| 2026-04-20 14:22 | 43.46996 | -1.52390 | 242 ft | 12 kts | 269° |
| 2026-04-20 14:22 | 43.46995 | -1.52516 | 244 ft | 16 kts | 269° |
| 2026-04-20 14:23 | 43.46993 | -1.52707 | 244 ft | 23 kts | 269° |
| 2026-04-20 14:23 | 43.46992 | -1.52933 | 244 ft | 21 kts | 270° |
| 2026-04-20 14:23 | 43.46990 | -1.53100 | 244 ft | 14 kts | 268° |
| 2026-04-20 14:23 | 43.47011 | -1.53173 | 244 ft | 6 kts | 353° |
| 2026-04-20 14:24 | 43.47051 | -1.53161 | 244 ft | 6 kts | 351° |
| 2026-04-20 14:24 | 43.47088 | -1.53189 | 244 ft | 6 kts | 327° |
| 2026-04-20 14:24 | 43.47112 | -1.53209 | 244 ft | 3 kts | 327° |
| 2026-04-20 14:24 | 43.47128 | -1.53207 | 244 ft | 2 kts | 51° |
| 2026-04-20 14:25 | 43.47123 | -1.53187 | 244 ft | 2 kts | 141° |
| 2026-04-20 14:25 | 43.47107 | -1.53180 | 244 ft | 4 kts | 161° |
| 2026-04-20 14:25 | 43.47101 | -1.53177 | 244 ft | 0 kts | 161° |